createdAt,value
2023-03-03T00:00:02.605Z,0.6
2023-03-03T00:15:02.971Z,0.5
2023-03-03T00:30:02.164Z,0.4
2023-03-03T00:45:02.622Z,0.4
2023-03-03T01:00:03.091Z,0.3
2023-03-03T01:15:02.509Z,0.3
2023-03-03T01:30:02.972Z,0.4
2023-03-03T01:45:02.387Z,0.4
2023-03-03T02:00:02.986Z,0.1
2023-03-03T02:15:02.231Z,0.0
2023-03-03T02:30:02.692Z,0.0
2023-03-03T02:45:03.111Z,-0.1
2023-03-03T03:00:02.575Z,0.0
2023-03-03T03:15:03.015Z,0.0
2023-03-03T03:30:02.439Z,0.0
2023-03-03T03:45:03.023Z,0.0
2023-03-03T04:00:02.310Z,0.0
2023-03-03T04:15:03.013Z,0.0
2023-03-03T04:30:02.234Z,0.0
2023-03-03T04:45:02.647Z,0.0
2023-03-03T05:00:03.087Z,0.0
2023-03-03T05:15:02.485Z,0.0
2023-03-03T05:30:03.027Z,0.2
2023-03-03T05:45:02.364Z,0.0
2023-03-03T06:00:03.020Z,0.0
2023-03-03T06:15:02.256Z,-0.1
2023-03-03T06:30:02.707Z,-0.1
2023-03-03T06:45:03.161Z,-0.1
2023-03-03T07:00:02.573Z,-0.2
2023-03-03T07:15:03.101Z,-0.1
2023-03-03T07:30:02.450Z,0.0
2023-03-03T07:45:03.067Z,0.0
2023-03-03T08:00:02.336Z,0.2
2023-03-03T08:15:02.753Z,0.3
2023-03-03T08:30:02.174Z,0.5
2023-03-03T08:45:02.632Z,0.8
2023-03-03T09:00:03.135Z,0.9
2023-03-03T09:15:02.538Z,1.3
2023-03-03T09:30:03.068Z,1.5
2023-03-03T09:45:02.405Z,1.5
2023-03-03T10:00:03.174Z,1.5
2023-03-03T10:15:02.276Z,1.7
2023-03-03T10:30:02.725Z,1.8
2023-03-03T10:45:03.212Z,2.1
2023-03-03T11:00:02.600Z,2.4
2023-03-03T11:15:03.292Z,2.6
2023-03-03T11:30:02.480Z,3.0
2023-03-03T11:45:03.099Z,3.6
2023-03-03T12:00:02.322Z,3.6
2023-03-03T12:15:02.800Z,4.1
2023-03-03T12:30:04.920Z,4.2
2023-03-03T12:45:02.641Z,4.3
2023-03-03T13:00:03.139Z,4.7
2023-03-03T13:15:02.568Z,4.8
2023-03-03T13:30:03.122Z,5.6
2023-03-03T13:45:02.475Z,5.9
2023-03-03T14:00:03.040Z,6.1
2023-03-03T14:15:02.293Z,6.3
2023-03-03T14:30:02.735Z,6.2
2023-03-03T14:45:03.194Z,5.9
2023-03-03T15:00:02.633Z,5.9
2023-03-03T15:15:03.149Z,6.1
2023-03-03T15:30:02.496Z,6.2
2023-03-03T15:45:03.147Z,6.3
2023-03-03T16:00:02.371Z,6.2
2023-03-03T16:15:02.850Z,6.1
2023-03-03T16:30:02.259Z,6.0
2023-03-03T16:45:02.699Z,5.9
2023-03-03T17:00:03.208Z,5.9
2023-03-03T17:15:02.573Z,5.6
2023-03-03T17:30:03.336Z,5.5
2023-03-03T17:45:02.417Z,5.4
2023-03-03T18:00:02.878Z,5.4
2023-03-03T18:15:02.296Z,5.3
2023-03-03T18:30:02.736Z,5.3
2023-03-03T18:45:03.192Z,5.3
2023-03-03T19:00:02.609Z,5.2
2023-03-03T19:15:03.198Z,5.2
2023-03-03T19:30:02.464Z,5.2
2023-03-03T19:45:02.940Z,5.3
2023-03-03T20:00:02.354Z,5.2
2023-03-03T20:15:02.800Z,5.2
2023-03-03T20:30:02.222Z,5.1
2023-03-03T20:45:02.658Z,4.9
2023-03-03T21:00:03.210Z,5.0
2023-03-03T21:15:02.563Z,4.8
2023-03-03T21:30:03.217Z,4.9
2023-03-03T21:45:02.395Z,4.9
2023-03-03T22:00:02.839Z,4.9
2023-03-03T22:15:02.273Z,4.8
2023-03-03T22:30:02.723Z,4.8
2023-03-03T22:45:03.230Z,4.8
2023-03-03T23:00:02.586Z,4.7
2023-03-03T23:15:02.248Z,4.7
2023-03-03T23:30:02.448Z,4.6
2023-03-03T23:45:02.921Z,4.6
